sensor_id;sensor_type;location;lat;lon;timestamp;temperature;humidity
18794;DHT22;29610;49.022;12.114;2023-04-03T00:02:47;3.00;94.30
18794;DHT22;29610;49.022;12.114;2023-04-03T00:05:36;3.00;94.40
18794;DHT22;29610;49.022;12.114;2023-04-03T00:08:25;3.00;94.40
18794;DHT22;29610;49.022;12.114;2023-04-03T00:11:14;3.00;94.40
18794;DHT22;29610;49.022;12.114;2023-04-03T00:14:05;3.00;94.40
18794;DHT22;29610;49.022;12.114;2023-04-03T00:16:53;3.00;94.40
18794;DHT22;29610;49.022;12.114;2023-04-03T00:19:43;2.90;94.40
18794;DHT22;29610;49.022;12.114;2023-04-03T00:22:32;2.90;94.60
18794;DHT22;29610;49.022;12.114;2023-04-03T00:25:21;2.90;94.60
18794;DHT22;29610;49.022;12.114;2023-04-03T00:28:10;2.90;94.80
18794;DHT22;29610;49.022;12.114;2023-04-03T00:31:01;2.90;94.70
18794;DHT22;29610;49.022;12.114;2023-04-03T00:33:50;2.90;94.80
18794;DHT22;29610;49.022;12.114;2023-04-03T00:36:39;2.90;94.80
18794;DHT22;29610;49.022;12.114;2023-04-03T00:39:28;2.90;94.80
18794;DHT22;29610;49.022;12.114;2023-04-03T00:42:17;2.90;94.70
18794;DHT22;29610;49.022;12.114;2023-04-03T00:45:31;2.90;94.80
18794;DHT22;29610;49.022;12.114;2023-04-03T00:48:27;2.90;94.80
18794;DHT22;29610;49.022;12.114;2023-04-03T00:51:23;2.90;94.90
18794;DHT22;29610;49.022;12.114;2023-04-03T00:54:13;2.90;94.90
18794;DHT22;29610;49.022;12.114;2023-04-03T00:57:03;2.90;94.90
18794;DHT22;29610;49.022;12.114;2023-04-03T00:59:59;2.90;94.70
18794;DHT22;29610;49.022;12.114;2023-04-03T01:02:53;2.90;95.00
18794;DHT22;29610;49.022;12.114;2023-04-03T01:05:43;2.90;95.00
18794;DHT22;29610;49.022;12.114;2023-04-03T01:08:32;2.90;95.20
18794;DHT22;29610;49.022;12.114;2023-04-03T01:11:22;2.90;95.10
18794;DHT22;29610;49.022;12.114;2023-04-03T01:14:12;2.80;95.20
18794;DHT22;29610;49.022;12.114;2023-04-03T01:17:01;2.80;95.20
18794;DHT22;29610;49.022;12.114;2023-04-03T01:19:55;2.80;95.20
18794;DHT22;29610;49.022;12.114;2023-04-03T01:23:16;2.70;95.30
18794;DHT22;29610;49.022;12.114;2023-04-03T01:26:14;2.70;95.50
18794;DHT22;29610;49.022;12.114;2023-04-03T01:29:03;2.60;95.70
18794;DHT22;29610;49.022;12.114;2023-04-03T01:31:55;2.60;95.90
18794;DHT22;29610;49.022;12.114;2023-04-03T01:34:45;2.60;96.00
18794;DHT22;29610;49.022;12.114;2023-04-03T01:37:34;2.60;96.20
18794;DHT22;29610;49.022;12.114;2023-04-03T01:40:23;2.60;96.20
18794;DHT22;29610;49.022;12.114;2023-04-03T01:43:12;2.60;96.20
18794;DHT22;29610;49.022;12.114;2023-04-03T01:46:01;2.60;96.40
18794;DHT22;29610;49.022;12.114;2023-04-03T01:48:52;2.70;96.30
18794;DHT22;29610;49.022;12.114;2023-04-03T01:51:41;2.70;96.40
18794;DHT22;29610;49.022;12.114;2023-04-03T01:54:30;2.60;96.30
18794;DHT22;29610;49.022;12.114;2023-04-03T01:57:19;2.60;96.30
18794;DHT22;29610;49.022;12.114;2023-04-03T02:00:09;2.60;96.30
18794;DHT22;29610;49.022;12.114;2023-04-03T02:02:59;2.60;96.20
18794;DHT22;29610;49.022;12.114;2023-04-03T02:05:49;2.60;96.30
18794;DHT22;29610;49.022;12.114;2023-04-03T02:08:38;2.60;96.30
18794;DHT22;29610;49.022;12.114;2023-04-03T02:11:29;2.80;96.40
18794;DHT22;29610;49.022;12.114;2023-04-03T02:14:18;2.60;96.30
18794;DHT22;29610;49.022;12.114;2023-04-03T02:17:09;2.70;96.20
18794;DHT22;29610;49.022;12.114;2023-04-03T02:19:58;2.50;96.40
18794;DHT22;29610;49.022;12.114;2023-04-03T02:22:48;2.50;96.60
18794;DHT22;29610;49.022;12.114;2023-04-03T02:25:37;2.50;96.30
18794;DHT22;29610;49.022;12.114;2023-04-03T02:28:26;2.50;96.30
18794;DHT22;29610;49.022;12.114;2023-04-03T02:31:17;2.60;96.60
18794;DHT22;29610;49.022;12.114;2023-04-03T02:34:07;2.60;96.50
18794;DHT22;29610;49.022;12.114;2023-04-03T02:36:57;2.60;96.60
18794;DHT22;29610;49.022;12.114;2023-04-03T02:39:47;2.60;96.50
18794;DHT22;29610;49.022;12.114;2023-04-03T02:42:36;2.60;96.50
18794;DHT22;29610;49.022;12.114;2023-04-03T02:45:25;2.60;96.60
18794;DHT22;29610;49.022;12.114;2023-04-03T02:48:15;2.50;96.90
18794;DHT22;29610;49.022;12.114;2023-04-03T02:51:04;2.50;96.80
18794;DHT22;29610;49.022;12.114;2023-04-03T02:53:53;2.50;96.90
18794;DHT22;29610;49.022;12.114;2023-04-03T02:56:48;2.60;96.90
18794;DHT22;29610;49.022;12.114;2023-04-03T02:59:37;2.50;96.70
18794;DHT22;29610;49.022;12.114;2023-04-03T03:02:28;2.50;96.80
18794;DHT22;29610;49.022;12.114;2023-04-03T03:05:18;2.50;96.90
18794;DHT22;29610;49.022;12.114;2023-04-03T03:08:07;2.50;96.80
18794;DHT22;29610;49.022;12.114;2023-04-03T03:10:56;2.40;96.90
18794;DHT22;29610;49.022;12.114;2023-04-03T03:13:46;2.40;96.90
18794;DHT22;29610;49.022;12.114;2023-04-03T03:16:35;2.40;96.90
18794;DHT22;29610;49.022;12.114;2023-04-03T03:19:24;2.40;96.70
18794;DHT22;29610;49.022;12.114;2023-04-03T03:22:13;2.40;96.90
18794;DHT22;29610;49.022;12.114;2023-04-03T03:25:03;2.40;97.00
18794;DHT22;29610;49.022;12.114;2023-04-03T03:27:56;2.40;97.00
18794;DHT22;29610;49.022;12.114;2023-04-03T03:30:47;2.40;97.30
18794;DHT22;29610;49.022;12.114;2023-04-03T03:33:37;2.40;97.10
18794;DHT22;29610;49.022;12.114;2023-04-03T03:36:26;2.40;97.30
18794;DHT22;29610;49.022;12.114;2023-04-03T03:39:15;2.40;97.50
18794;DHT22;29610;49.022;12.114;2023-04-03T03:42:05;2.40;97.40
18794;DHT22;29610;49.022;12.114;2023-04-03T03:44:54;2.40;97.40
18794;DHT22;29610;49.022;12.114;2023-04-03T03:47:44;2.40;97.30
18794;DHT22;29610;49.022;12.114;2023-04-03T03:50:33;2.40;97.40
18794;DHT22;29610;49.022;12.114;2023-04-03T03:53:23;2.40;97.40
18794;DHT22;29610;49.022;12.114;2023-04-03T03:56:15;2.40;97.30
18794;DHT22;29610;49.022;12.114;2023-04-03T03:59:06;2.30;97.20
18794;DHT22;29610;49.022;12.114;2023-04-03T04:01:55;2.30;97.50
18794;DHT22;29610;49.022;12.114;2023-04-03T04:04:45;2.30;97.40
18794;DHT22;29610;49.022;12.114;2023-04-03T04:07:35;2.30;97.40
18794;DHT22;29610;49.022;12.114;2023-04-03T04:10:24;2.30;97.50
18794;DHT22;29610;49.022;12.114;2023-04-03T04:13:13;2.20;97.40
18794;DHT22;29610;49.022;12.114;2023-04-03T04:16:03;2.20;97.50
18794;DHT22;29610;49.022;12.114;2023-04-03T04:18:53;2.20;97.40
18794;DHT22;29610;49.022;12.114;2023-04-03T04:21:44;2.20;97.50
18794;DHT22;29610;49.022;12.114;2023-04-03T04:24:34;2.20;97.50
18794;DHT22;29610;49.022;12.114;2023-04-03T04:27:26;2.20;97.50
18794;DHT22;29610;49.022;12.114;2023-04-03T04:30:16;2.20;97.40
18794;DHT22;29610;49.022;12.114;2023-04-03T04:33:08;2.20;97.60
18794;DHT22;29610;49.022;12.114;2023-04-03T04:35:58;2.20;97.40
18794;DHT22;29610;49.022;12.114;2023-04-03T04:38:48;2.20;97.30
18794;DHT22;29610;49.022;12.114;2023-04-03T04:41:41;2.20;97.30
18794;DHT22;29610;49.022;12.114;2023-04-03T04:44:31;2.20;97.50
18794;DHT22;29610;49.022;12.114;2023-04-03T04:47:20;2.20;97.50
18794;DHT22;29610;49.022;12.114;2023-04-03T04:50:10;2.20;97.40
18794;DHT22;29610;49.022;12.114;2023-04-03T04:53:00;2.20;97.40
18794;DHT22;29610;49.022;12.114;2023-04-03T04:55:51;2.20;97.50
18794;DHT22;29610;49.022;12.114;2023-04-03T04:58:40;2.20;97.40
18794;DHT22;29610;49.022;12.114;2023-04-03T05:01:29;2.20;97.50
18794;DHT22;29610;49.022;12.114;2023-04-03T05:04:27;2.20;97.40
18794;DHT22;29610;49.022;12.114;2023-04-03T05:07:24;2.20;97.50
18794;DHT22;29610;49.022;12.114;2023-04-03T05:10:13;2.20;97.60
18794;DHT22;29610;49.022;12.114;2023-04-03T05:13:04;2.20;97.70
18794;DHT22;29610;49.022;12.114;2023-04-03T05:15:53;2.20;97.80
18794;DHT22;29610;49.022;12.114;2023-04-03T05:18:42;2.20;97.80
18794;DHT22;29610;49.022;12.114;2023-04-03T05:21:37;2.20;97.80
18794;DHT22;29610;49.022;12.114;2023-04-03T05:24:31;2.20;97.70
18794;DHT22;29610;49.022;12.114;2023-04-03T05:27:21;2.20;97.60
18794;DHT22;29610;49.022;12.114;2023-04-03T05:30:16;2.20;97.40
18794;DHT22;29610;49.022;12.114;2023-04-03T05:33:07;2.20;97.10
18794;DHT22;29610;49.022;12.114;2023-04-03T05:36:03;2.30;97.40
18794;DHT22;29610;49.022;12.114;2023-04-03T05:38:57;2.40;97.20
18794;DHT22;29610;49.022;12.114;2023-04-03T05:41:46;2.30;97.20
18794;DHT22;29610;49.022;12.114;2023-04-03T05:44:35;2.30;97.30
18794;DHT22;29610;49.022;12.114;2023-04-03T05:47:25;2.40;97.20
18794;DHT22;29610;49.022;12.114;2023-04-03T05:50:15;2.50;97.20
18794;DHT22;29610;49.022;12.114;2023-04-03T05:53:04;2.50;97.10
18794;DHT22;29610;49.022;12.114;2023-04-03T05:55:54;2.60;97.00
18794;DHT22;29610;49.022;12.114;2023-04-03T05:58:44;2.60;96.80
18794;DHT22;29610;49.022;12.114;2023-04-03T06:01:33;3.00;97.10
18794;DHT22;29610;49.022;12.114;2023-04-03T06:04:24;2.80;96.60
18794;DHT22;29610;49.022;12.114;2023-04-03T06:07:15;2.80;96.10
18794;DHT22;29610;49.022;12.114;2023-04-03T06:10:08;2.80;96.10
18794;DHT22;29610;49.022;12.114;2023-04-03T06:12:59;2.90;96.10
18794;DHT22;29610;49.022;12.114;2023-04-03T06:15:49;3.00;96.00
18794;DHT22;29610;49.022;12.114;2023-04-03T06:18:38;3.00;95.90
18794;DHT22;29610;49.022;12.114;2023-04-03T06:21:28;3.00;95.60
18794;DHT22;29610;49.022;12.114;2023-04-03T06:24:18;3.00;95.70
18794;DHT22;29610;49.022;12.114;2023-04-03T06:27:09;3.10;95.60
18794;DHT22;29610;49.022;12.114;2023-04-03T06:29:59;3.20;95.50
18794;DHT22;29610;49.022;12.114;2023-04-03T06:32:48;3.20;94.90
18794;DHT22;29610;49.022;12.114;2023-04-03T06:35:37;3.20;95.10
18794;DHT22;29610;49.022;12.114;2023-04-03T06:38:28;3.40;95.10
18794;DHT22;29610;49.022;12.114;2023-04-03T06:41:17;3.40;94.70
18794;DHT22;29610;49.022;12.114;2023-04-03T06:44:06;3.50;94.90
18794;DHT22;29610;49.022;12.114;2023-04-03T06:46:58;3.40;94.50
18794;DHT22;29610;49.022;12.114;2023-04-03T06:49:47;3.50;94.60
18794;DHT22;29610;49.022;12.114;2023-04-03T06:52:36;3.60;94.40
18794;DHT22;29610;49.022;12.114;2023-04-03T06:55:27;3.70;94.40
18794;DHT22;29610;49.022;12.114;2023-04-03T06:58:16;3.60;93.80
18794;DHT22;29610;49.022;12.114;2023-04-03T07:01:09;3.50;93.60
18794;DHT22;29610;49.022;12.114;2023-04-03T07:03:59;3.50;94.00
18794;DHT22;29610;49.022;12.114;2023-04-03T07:06:48;3.70;93.90
18794;DHT22;29610;49.022;12.114;2023-04-03T07:09:37;3.90;93.50
18794;DHT22;29610;49.022;12.114;2023-04-03T07:12:28;4.60;93.00
18794;DHT22;29610;49.022;12.114;2023-04-03T07:15:17;3.80;92.90
18794;DHT22;29610;49.022;12.114;2023-04-03T07:18:07;3.90;92.60
18794;DHT22;29610;49.022;12.114;2023-04-03T07:20:56;3.80;93.40
18794;DHT22;29610;49.022;12.114;2023-04-03T07:23:45;3.80;92.90
18794;DHT22;29610;49.022;12.114;2023-04-03T07:26:39;4.00;92.80
18794;DHT22;29610;49.022;12.114;2023-04-03T07:29:29;3.80;92.50
18794;DHT22;29610;49.022;12.114;2023-04-03T07:32:18;3.70;92.20
18794;DHT22;29610;49.022;12.114;2023-04-03T07:35:08;3.80;92.30
18794;DHT22;29610;49.022;12.114;2023-04-03T07:37:57;3.80;91.40
18794;DHT22;29610;49.022;12.114;2023-04-03T07:40:47;3.90;90.80
18794;DHT22;29610;49.022;12.114;2023-04-03T07:43:36;3.80;90.60
18794;DHT22;29610;49.022;12.114;2023-04-03T07:46:27;3.90;90.20
18794;DHT22;29610;49.022;12.114;2023-04-03T07:49:16;3.90;88.90
18794;DHT22;29610;49.022;12.114;2023-04-03T07:52:07;3.80;89.20
18794;DHT22;29610;49.022;12.114;2023-04-03T07:54:57;4.00;90.30
18794;DHT22;29610;49.022;12.114;2023-04-03T07:57:45;4.00;88.80
18794;DHT22;29610;49.022;12.114;2023-04-03T08:00:34;4.10;88.90
18794;DHT22;29610;49.022;12.114;2023-04-03T08:03:25;4.10;88.90
18794;DHT22;29610;49.022;12.114;2023-04-03T08:06:14;4.50;89.30
18794;DHT22;29610;49.022;12.114;2023-04-03T08:09:10;4.30;88.30
18794;DHT22;29610;49.022;12.114;2023-04-03T08:11:58;4.90;88.20
18794;DHT22;29610;49.022;12.114;2023-04-03T08:14:48;4.50;88.60
18794;DHT22;29610;49.022;12.114;2023-04-03T08:17:37;4.40;87.90
18794;DHT22;29610;49.022;12.114;2023-04-03T08:20:28;4.40;86.90
18794;DHT22;29610;49.022;12.114;2023-04-03T08:23:17;4.30;87.10
18794;DHT22;29610;49.022;12.114;2023-04-03T08:26:09;4.50;85.40
18794;DHT22;29610;49.022;12.114;2023-04-03T08:28:59;4.60;84.80
18794;DHT22;29610;49.022;12.114;2023-04-03T08:31:48;4.60;84.90
18794;DHT22;29610;49.022;12.114;2023-04-03T08:34:38;4.70;85.40
18794;DHT22;29610;49.022;12.114;2023-04-03T08:37:28;4.80;85.10
18794;DHT22;29610;49.022;12.114;2023-04-03T08:40:17;4.90;83.90
18794;DHT22;29610;49.022;12.114;2023-04-03T08:43:25;4.90;82.30
18794;DHT22;29610;49.022;12.114;2023-04-03T08:46:32;5.20;84.00
18794;DHT22;29610;49.022;12.114;2023-04-03T08:49:32;6.00;81.20
18794;DHT22;29610;49.022;12.114;2023-04-03T08:52:31;5.90;80.20
18794;DHT22;29610;49.022;12.114;2023-04-03T08:55:28;6.00;77.40
18794;DHT22;29610;49.022;12.114;2023-04-03T08:58:21;5.50;77.10
18794;DHT22;29610;49.022;12.114;2023-04-03T09:01:18;5.30;76.90
18794;DHT22;29610;49.022;12.114;2023-04-03T09:04:11;5.20;76.40
18794;DHT22;29610;49.022;12.114;2023-04-03T09:07:09;5.00;77.80
18794;DHT22;29610;49.022;12.114;2023-04-03T09:10:10;4.80;75.10
18794;DHT22;29610;49.022;12.114;2023-04-03T09:13:05;4.70;76.10
18794;DHT22;29610;49.022;12.114;2023-04-03T09:16:00;4.60;75.50
18794;DHT22;29610;49.022;12.114;2023-04-03T09:19:02;4.60;77.00
18794;DHT22;29610;49.022;12.114;2023-04-03T09:22:13;4.50;75.60
18794;DHT22;29610;49.022;12.114;2023-04-03T09:25:13;4.80;74.80
18794;DHT22;29610;49.022;12.114;2023-04-03T09:28:04;5.30;72.30
18794;DHT22;29610;49.022;12.114;2023-04-03T09:30:57;5.60;71.70
18794;DHT22;29610;49.022;12.114;2023-04-03T09:33:50;5.40;68.40
18794;DHT22;29610;49.022;12.114;2023-04-03T09:36:45;5.00;68.40
18794;DHT22;29610;49.022;12.114;2023-04-03T09:39:49;4.90;67.30
18794;DHT22;29610;49.022;12.114;2023-04-03T09:42:42;4.80;65.50
18794;DHT22;29610;49.022;12.114;2023-04-03T09:45:38;4.80;67.10
18794;DHT22;29610;49.022;12.114;2023-04-03T09:48:27;4.70;66.70
18794;DHT22;29610;49.022;12.114;2023-04-03T09:51:16;4.50;67.60
18794;DHT22;29610;49.022;12.114;2023-04-03T09:54:30;4.40;67.80
18794;DHT22;29610;49.022;12.114;2023-04-03T09:57:20;4.20;68.40
18794;DHT22;29610;49.022;12.114;2023-04-03T10:00:21;4.20;68.10
18794;DHT22;29610;49.022;12.114;2023-04-03T10:03:24;4.70;69.10
18794;DHT22;29610;49.022;12.114;2023-04-03T10:06:22;5.20;66.80
18794;DHT22;29610;49.022;12.114;2023-04-03T10:09:19;5.90;67.60
18794;DHT22;29610;49.022;12.114;2023-04-03T10:12:11;6.00;67.20
18794;DHT22;29610;49.022;12.114;2023-04-03T10:15:02;6.40;65.50
18794;DHT22;29610;49.022;12.114;2023-04-03T10:17:58;6.20;59.60
18794;DHT22;29610;49.022;12.114;2023-04-03T10:21:13;6.50;59.50
18794;DHT22;29610;49.022;12.114;2023-04-03T10:24:20;5.70;62.40
18794;DHT22;29610;49.022;12.114;2023-04-03T10:27:16;5.00;62.80
18794;DHT22;29610;49.022;12.114;2023-04-03T10:30:20;4.90;63.90
18794;DHT22;29610;49.022;12.114;2023-04-03T10:33:31;5.00;62.80
18794;DHT22;29610;49.022;12.114;2023-04-03T10:36:36;5.80;64.30
18794;DHT22;29610;49.022;12.114;2023-04-03T10:39:36;5.70;61.90
18794;DHT22;29610;49.022;12.114;2023-04-03T10:42:37;5.70;60.60
18794;DHT22;29610;49.022;12.114;2023-04-03T10:45:48;5.70;60.00
18794;DHT22;29610;49.022;12.114;2023-04-03T10:48:51;6.20;60.00
18794;DHT22;29610;49.022;12.114;2023-04-03T10:51:55;6.50;59.90
18794;DHT22;29610;49.022;12.114;2023-04-03T10:55:00;6.40;57.50
18794;DHT22;29610;49.022;12.114;2023-04-03T10:57:57;6.00;57.20
18794;DHT22;29610;49.022;12.114;2023-04-03T11:00:50;6.10;59.30
18794;DHT22;29610;49.022;12.114;2023-04-03T11:03:45;6.70;58.50
18794;DHT22;29610;49.022;12.114;2023-04-03T11:06:44;7.00;56.80
18794;DHT22;29610;49.022;12.114;2023-04-03T11:09:40;6.40;59.30
18794;DHT22;29610;49.022;12.114;2023-04-03T11:12:40;6.90;57.80
18794;DHT22;29610;49.022;12.114;2023-04-03T11:15:34;7.70;55.60
18794;DHT22;29610;49.022;12.114;2023-04-03T11:18:29;8.40;56.80
18794;DHT22;29610;49.022;12.114;2023-04-03T11:21:28;8.20;56.30
18794;DHT22;29610;49.022;12.114;2023-04-03T11:24:25;7.50;57.60
18794;DHT22;29610;49.022;12.114;2023-04-03T11:27:17;6.50;57.10
18794;DHT22;29610;49.022;12.114;2023-04-03T11:30:16;5.90;58.10
18794;DHT22;29610;49.022;12.114;2023-04-03T11:33:24;6.30;59.70
18794;DHT22;29610;49.022;12.114;2023-04-03T11:36:25;7.00;56.10
18794;DHT22;29610;49.022;12.114;2023-04-03T11:39:23;7.60;55.50
18794;DHT22;29610;49.022;12.114;2023-04-03T11:42:20;7.50;54.70
18794;DHT22;29610;49.022;12.114;2023-04-03T11:45:35;7.60;52.50
18794;DHT22;29610;49.022;12.114;2023-04-03T11:48:47;7.90;52.50
18794;DHT22;29610;49.022;12.114;2023-04-03T11:51:43;7.40;52.80
18794;DHT22;29610;49.022;12.114;2023-04-03T11:54:50;6.40;54.40
18794;DHT22;29610;49.022;12.114;2023-04-03T12:01:09;7.30;52.80
18794;DHT22;29610;49.022;12.114;2023-04-03T12:04:07;7.10;53.50
18794;DHT22;29610;49.022;12.114;2023-04-03T12:07:18;7.80;56.20
18794;DHT22;29610;49.022;12.114;2023-04-03T12:10:18;7.60;50.40
18794;DHT22;29610;49.022;12.114;2023-04-03T12:13:19;7.10;53.20
18794;DHT22;29610;49.022;12.114;2023-04-03T12:16:19;7.30;54.90
18794;DHT22;29610;49.022;12.114;2023-04-03T12:19:32;7.90;52.90
18794;DHT22;29610;49.022;12.114;2023-04-03T12:22:28;8.80;52.70
18794;DHT22;29610;49.022;12.114;2023-04-03T12:25:40;9.10;52.70
18794;DHT22;29610;49.022;12.114;2023-04-03T12:28:39;8.20;49.40
18794;DHT22;29610;49.022;12.114;2023-04-03T12:31:38;8.40;53.60
18794;DHT22;29610;49.022;12.114;2023-04-03T12:34:56;8.80;53.30
18794;DHT22;29610;49.022;12.114;2023-04-03T12:38:26;8.50;50.60
18794;DHT22;29610;49.022;12.114;2023-04-03T12:41:35;8.70;52.20
18794;DHT22;29610;49.022;12.114;2023-04-03T12:44:42;8.80;52.90
18794;DHT22;29610;49.022;12.114;2023-04-03T12:47:37;9.50;53.50
18794;DHT22;29610;49.022;12.114;2023-04-03T12:50:29;9.70;52.10
18794;DHT22;29610;49.022;12.114;2023-04-03T12:53:23;9.50;50.50
18794;DHT22;29610;49.022;12.114;2023-04-03T12:56:23;8.60;52.40
18794;DHT22;29610;49.022;12.114;2023-04-03T12:59:16;7.50;54.70
18794;DHT22;29610;49.022;12.114;2023-04-03T13:02:20;6.80;53.30
18794;DHT22;29610;49.022;12.114;2023-04-03T13:05:15;6.60;55.60
18794;DHT22;29610;49.022;12.114;2023-04-03T13:08:10;6.30;55.30
18794;DHT22;29610;49.022;12.114;2023-04-03T13:11:08;6.60;56.50
18794;DHT22;29610;49.022;12.114;2023-04-03T13:14:01;7.40;57.50
18794;DHT22;29610;49.022;12.114;2023-04-03T13:16:53;8.10;53.60
18794;DHT22;29610;49.022;12.114;2023-04-03T13:19:44;8.10;51.40
18794;DHT22;29610;49.022;12.114;2023-04-03T13:22:36;7.80;51.90
18794;DHT22;29610;49.022;12.114;2023-04-03T13:25:33;8.50;57.60
18794;DHT22;29610;49.022;12.114;2023-04-03T13:28:26;9.60;53.80
18794;DHT22;29610;49.022;12.114;2023-04-03T13:31:22;10.20;50.50
18794;DHT22;29610;49.022;12.114;2023-04-03T13:34:18;10.90;50.40
18794;DHT22;29610;49.022;12.114;2023-04-03T13:37:19;9.70;47.20
18794;DHT22;29610;49.022;12.114;2023-04-03T13:40:12;8.50;50.40
18794;DHT22;29610;49.022;12.114;2023-04-03T13:43:05;7.70;50.50
18794;DHT22;29610;49.022;12.114;2023-04-03T13:46:23;7.20;52.10
18794;DHT22;29610;49.022;12.114;2023-04-03T13:49:19;7.80;55.10
18794;DHT22;29610;49.022;12.114;2023-04-03T13:52:23;8.60;50.60
18794;DHT22;29610;49.022;12.114;2023-04-03T13:55:22;8.60;50.40
18794;DHT22;29610;49.022;12.114;2023-04-03T13:58:22;8.40;52.70
18794;DHT22;29610;49.022;12.114;2023-04-03T14:01:18;8.80;53.10
18794;DHT22;29610;49.022;12.114;2023-04-03T14:04:14;7.80;51.20
18794;DHT22;29610;49.022;12.114;2023-04-03T14:07:05;7.20;52.90
18794;DHT22;29610;49.022;12.114;2023-04-03T14:09:54;7.40;51.60
18794;DHT22;29610;49.022;12.114;2023-04-03T14:12:44;7.40;51.40
18794;DHT22;29610;49.022;12.114;2023-04-03T14:15:33;7.80;53.30
18794;DHT22;29610;49.022;12.114;2023-04-03T14:18:24;8.00;51.30
18794;DHT22;29610;49.022;12.114;2023-04-03T14:21:15;7.70;50.10
18794;DHT22;29610;49.022;12.114;2023-04-03T14:24:05;7.30;51.60
18794;DHT22;29610;49.022;12.114;2023-04-03T14:26:55;6.90;52.60
18794;DHT22;29610;49.022;12.114;2023-04-03T14:29:44;7.20;54.10
18794;DHT22;29610;49.022;12.114;2023-04-03T14:32:34;7.50;53.90
18794;DHT22;29610;49.022;12.114;2023-04-03T14:35:25;7.50;52.60
18794;DHT22;29610;49.022;12.114;2023-04-03T14:38:22;7.50;53.50
18794;DHT22;29610;49.022;12.114;2023-04-03T14:41:15;7.50;54.70
18794;DHT22;29610;49.022;12.114;2023-04-03T14:44:06;7.80;55.20
18794;DHT22;29610;49.022;12.114;2023-04-03T14:46:55;7.60;53.30
18794;DHT22;29610;49.022;12.114;2023-04-03T14:49:44;7.20;54.50
18794;DHT22;29610;49.022;12.114;2023-04-03T14:52:37;6.00;53.50
18794;DHT22;29610;49.022;12.114;2023-04-03T14:55:28;6.20;54.90
18794;DHT22;29610;49.022;12.114;2023-04-03T14:58:20;6.10;54.60
18794;DHT22;29610;49.022;12.114;2023-04-03T15:01:10;6.00;55.20
18794;DHT22;29610;49.022;12.114;2023-04-03T15:04:01;6.30;55.20
18794;DHT22;29610;49.022;12.114;2023-04-03T15:06:53;6.50;53.70
18794;DHT22;29610;49.022;12.114;2023-04-03T15:09:44;6.40;55.00
18794;DHT22;29610;49.022;12.114;2023-04-03T15:12:33;6.80;54.90
18794;DHT22;29610;49.022;12.114;2023-04-03T15:15:23;6.70;54.00
18794;DHT22;29610;49.022;12.114;2023-04-03T15:18:17;6.70;53.20
18794;DHT22;29610;49.022;12.114;2023-04-03T15:21:08;6.10;53.10
18794;DHT22;29610;49.022;12.114;2023-04-03T15:23:58;5.70;53.90
18794;DHT22;29610;49.022;12.114;2023-04-03T15:26:49;5.50;55.20
18794;DHT22;29610;49.022;12.114;2023-04-03T15:29:40;5.60;55.60
18794;DHT22;29610;49.022;12.114;2023-04-03T15:32:30;5.80;54.90
18794;DHT22;29610;49.022;12.114;2023-04-03T15:35:21;6.00;54.40
18794;DHT22;29610;49.022;12.114;2023-04-03T15:38:10;5.90;53.30
18794;DHT22;29610;49.022;12.114;2023-04-03T15:41:00;5.80;53.50
18794;DHT22;29610;49.022;12.114;2023-04-03T15:43:50;5.60;54.20
18794;DHT22;29610;49.022;12.114;2023-04-03T15:46:39;5.60;56.20
18794;DHT22;29610;49.022;12.114;2023-04-03T15:49:28;5.50;56.20
18794;DHT22;29610;49.022;12.114;2023-04-03T15:52:18;5.50;55.50
18794;DHT22;29610;49.022;12.114;2023-04-03T15:55:08;5.60;54.50
18794;DHT22;29610;49.022;12.114;2023-04-03T15:57:58;5.50;54.20
18794;DHT22;29610;49.022;12.114;2023-04-03T16:00:48;5.50;55.20
18794;DHT22;29610;49.022;12.114;2023-04-03T16:03:38;5.50;54.80
18794;DHT22;29610;49.022;12.114;2023-04-03T16:06:33;5.40;55.50
18794;DHT22;29610;49.022;12.114;2023-04-03T16:09:22;5.40;57.50
18794;DHT22;29610;49.022;12.114;2023-04-03T16:12:11;5.10;57.50
18794;DHT22;29610;49.022;12.114;2023-04-03T16:15:00;5.00;58.20
18794;DHT22;29610;49.022;12.114;2023-04-03T16:17:50;4.90;57.90
18794;DHT22;29610;49.022;12.114;2023-04-03T16:20:41;4.70;57.50
18794;DHT22;29610;49.022;12.114;2023-04-03T16:23:31;4.60;57.40
18794;DHT22;29610;49.022;12.114;2023-04-03T16:26:20;4.50;58.20
18794;DHT22;29610;49.022;12.114;2023-04-03T16:29:09;4.40;58.80
18794;DHT22;29610;49.022;12.114;2023-04-03T16:31:58;4.20;59.30
18794;DHT22;29610;49.022;12.114;2023-04-03T16:34:49;4.10;59.30
18794;DHT22;29610;49.022;12.114;2023-04-03T16:37:38;4.10;59.80
18794;DHT22;29610;49.022;12.114;2023-04-03T16:40:28;4.20;59.10
18794;DHT22;29610;49.022;12.114;2023-04-03T16:43:17;4.10;59.30
18794;DHT22;29610;49.022;12.114;2023-04-03T16:46:06;4.00;59.60
18794;DHT22;29610;49.022;12.114;2023-04-03T16:48:55;4.00;60.60
18794;DHT22;29610;49.022;12.114;2023-04-03T16:51:45;4.00;60.80
18794;DHT22;29610;49.022;12.114;2023-04-03T16:54:34;4.10;61.70
18794;DHT22;29610;49.022;12.114;2023-04-03T16:57:23;4.10;61.70
18794;DHT22;29610;49.022;12.114;2023-04-03T17:00:13;4.00;61.80
18794;DHT22;29610;49.022;12.114;2023-04-03T17:03:03;3.90;62.30
18794;DHT22;29610;49.022;12.114;2023-04-03T17:05:52;3.80;61.60
18794;DHT22;29610;49.022;12.114;2023-04-03T17:08:42;3.70;61.30
18794;DHT22;29610;49.022;12.114;2023-04-03T17:11:45;3.60;61.40
18794;DHT22;29610;49.022;12.114;2023-04-03T17:14:35;3.50;61.90
18794;DHT22;29610;49.022;12.114;2023-04-03T17:17:25;3.40;62.80
18794;DHT22;29610;49.022;12.114;2023-04-03T17:20:14;3.40;62.20
18794;DHT22;29610;49.022;12.114;2023-04-03T17:23:04;3.20;62.40
18794;DHT22;29610;49.022;12.114;2023-04-03T17:25:55;3.10;63.10
18794;DHT22;29610;49.022;12.114;2023-04-03T17:28:44;3.10;64.10
18794;DHT22;29610;49.022;12.114;2023-04-03T17:31:33;3.00;65.20
18794;DHT22;29610;49.022;12.114;2023-04-03T17:34:22;2.80;65.00
18794;DHT22;29610;49.022;12.114;2023-04-03T17:37:12;2.70;63.80
18794;DHT22;29610;49.022;12.114;2023-04-03T17:40:01;2.60;64.30
18794;DHT22;29610;49.022;12.114;2023-04-03T17:42:51;2.40;65.90
18794;DHT22;29610;49.022;12.114;2023-04-03T17:45:40;2.40;65.20
18794;DHT22;29610;49.022;12.114;2023-04-03T17:48:29;2.30;65.40
18794;DHT22;29610;49.022;12.114;2023-04-03T17:51:21;2.10;66.20
18794;DHT22;29610;49.022;12.114;2023-04-03T17:54:11;2.10;65.10
18794;DHT22;29610;49.022;12.114;2023-04-03T17:57:00;1.90;65.20
18794;DHT22;29610;49.022;12.114;2023-04-03T17:59:52;1.80;65.60
18794;DHT22;29610;49.022;12.114;2023-04-03T18:02:41;1.80;66.50
18794;DHT22;29610;49.022;12.114;2023-04-03T18:05:30;1.70;66.20
18794;DHT22;29610;49.022;12.114;2023-04-03T18:08:19;1.60;65.80
18794;DHT22;29610;49.022;12.114;2023-04-03T18:11:09;1.60;66.10
18794;DHT22;29610;49.022;12.114;2023-04-03T18:14:00;1.60;65.10
18794;DHT22;29610;49.022;12.114;2023-04-03T18:16:51;1.80;64.80